Time;durP1;ratioP1;P1;durP2;ratioP2;P2;SDS_P1;SDS_P2;PMS_P1;PMS_P2;Temp;Humidity;BMP_temperature;BMP_pressure;BME280_temperature;BME280_humidity;BME280_pressure;Samples;Min_cycle;Max_cycle;Signal;HPM_P1;HPM_P2
2021/10/19 00:02:33;;;;;;;3.50;1.70;;;;;;;;;;5019427;28;20048;-71
2021/10/19 00:05:18;;;;;;;2.60;1.80;;;;;;;;;;5034518;28;20113;-71
2021/10/19 00:08:02;;;;;;;2.47;1.90;;;;;;;;;;5034487;28;20043;-71
2021/10/19 00:10:47;;;;;;;2.92;1.63;;;;;;;;;;5034296;28;20037;-71
2021/10/19 00:13:32;;;;;;;3.00;1.90;;;;;;;;;;5034193;28;20124;-71
2021/10/19 00:16:16;;;;;;;2.53;1.50;;;;;;;;;;5034222;28;20226;-70
2021/10/19 00:19:01;;;;;;;3.75;1.70;;;;;;;;;;5034460;28;20164;-70
2021/10/19 00:21:46;;;;;;;2.90;1.77;;;;;;;;;;5033877;28;20078;-70
2021/10/19 00:24:31;;;;;;;3.72;1.60;;;;;;;;;;5034006;28;20121;-70
2021/10/19 00:27:15;;;;;;;2.95;1.77;;;;;;;;;;5034220;28;20040;-70
2021/10/19 00:30:00;;;;;;;3.78;2.00;;;;;;;;;;5033995;28;20044;-70
2021/10/19 00:32:45;;;;;;;2.78;1.58;;;;;;;;;;5033841;28;20083;-70
2021/10/19 00:35:30;;;;;;;2.88;1.60;;;;;;;;;;5033934;28;20044;-71
2021/10/19 00:38:14;;;;;;;2.05;1.40;;;;;;;;;;5018936;28;20168;-72
2021/10/19 00:40:59;;;;;;;3.08;1.58;;;;;;;;;;5033906;28;20563;-72
2021/10/19 00:43:43;;;;;;;2.30;1.70;;;;;;;;;;5018714;28;20467;-70
2021/10/19 00:46:28;;;;;;;4.03;1.85;;;;;;;;;;5033608;28;20048;-70
2021/10/19 00:49:12;;;;;;;3.00;1.70;;;;;;;;;;5033810;28;20120;-71
2021/10/19 00:51:57;;;;;;;3.88;1.92;;;;;;;;;;5034278;28;20385;-71
2021/10/19 00:54:43;;;;;;;4.57;1.80;;;;;;;;;;5018552;28;20071;-70
2021/10/19 00:57:28;;;;;;;3.10;1.70;;;;;;;;;;5033603;28;20037;-71
2021/10/19 01:00:12;;;;;;;3.72;1.98;;;;;;;;;;5033525;28;20052;-71
2021/10/19 01:02:57;;;;;;;2.97;1.42;;;;;;;;;;5033308;28;20048;-71
2021/10/19 01:05:42;;;;;;;4.47;1.85;;;;;;;;;;5033406;28;20040;-71
2021/10/19 01:08:27;;;;;;;4.90;1.90;;;;;;;;;;5018382;28;20125;-71
2021/10/19 01:11:11;;;;;;;3.30;1.70;;;;;;;;;;5033550;28;20032;-71
2021/10/19 01:13:56;;;;;;;3.85;1.73;;;;;;;;;;5018255;28;20045;-71
2021/10/19 01:16:40;;;;;;;7.13;2.10;;;;;;;;;;5033213;28;20044;-71
2021/10/19 01:19:25;;;;;;;3.47;1.60;;;;;;;;;;5033174;28;20044;-71
2021/10/19 01:22:10;;;;;;;4.53;1.85;;;;;;;;;;5033060;28;20060;-71
2021/10/19 01:24:54;;;;;;;3.05;1.73;;;;;;;;;;5033115;28;20039;-71
2021/10/19 01:27:49;;;;;;;6.68;2.00;;;;;;;;;;5033063;28;20052;-71
2021/10/19 01:30:33;;;;;;;3.42;2.17;;;;;;;;;;5032974;28;20084;-71
2021/10/19 01:33:18;;;;;;;3.78;1.70;;;;;;;;;;5033001;28;20083;-71
2021/10/19 01:36:03;;;;;;;3.47;1.55;;;;;;;;;;5032920;28;20044;-71
2021/10/19 01:38:47;;;;;;;3.85;2.13;;;;;;;;;;5032876;28;20047;-71
2021/10/19 01:41:32;;;;;;;3.95;2.10;;;;;;;;;;5032716;28;20041;-71
2021/10/19 01:44:17;;;;;;;4.80;1.80;;;;;;;;;;5032803;28;20083;-71
2021/10/19 01:47:02;;;;;;;4.13;1.77;;;;;;;;;;5033098;28;20076;-71
2021/10/19 01:49:46;;;;;;;4.53;1.95;;;;;;;;;;5033455;28;20039;-71
2021/10/19 01:52:31;;;;;;;4.25;1.80;;;;;;;;;;5033972;28;20071;-71
2021/10/19 01:55:15;;;;;;;4.60;1.70;;;;;;;;;;5033264;28;20037;-71
2021/10/19 01:58:00;;;;;;;5.50;1.60;;;;;;;;;;5033305;28;20381;-71
2021/10/19 02:00:45;;;;;;;5.22;1.80;;;;;;;;;;5033116;28;20045;-71
2021/10/19 02:03:29;;;;;;;4.93;1.95;;;;;;;;;;5018250;28;20053;-71
2021/10/19 02:06:14;;;;;;;6.63;1.83;;;;;;;;;;5033190;28;20083;-71
2021/10/19 02:08:58;;;;;;;3.58;1.80;;;;;;;;;;5033092;28;20099;-71
2021/10/19 02:11:43;;;;;;;3.45;1.60;;;;;;;;;;5032889;28;20032;-71
2021/10/19 02:14:28;;;;;;;8.52;1.90;;;;;;;;;;5032517;28;20550;-71
2021/10/19 02:17:12;;;;;;;7.05;1.80;;;;;;;;;;5017710;28;20503;-71
2021/10/19 02:20:00;;;;;;;4.00;1.80;;;;;;;;;;5032808;28;20036;-71
2021/10/19 02:22:45;;;;;;;4.47;1.73;;;;;;;;;;5032835;28;20096;-71
2021/10/19 02:25:30;;;;;;;5.95;1.80;;;;;;;;;;5017628;28;20035;-71
2021/10/19 02:28:14;;;;;;;3.38;1.92;;;;;;;;;;5032640;28;20036;-71
2021/10/19 02:30:59;;;;;;;3.63;1.70;;;;;;;;;;5032639;28;20511;-71
2021/10/19 02:33:43;;;;;;;4.10;1.80;;;;;;;;;;5032460;28;20496;-71
2021/10/19 02:36:30;;;;;;;7.25;1.75;;;;;;;;;;5032502;28;20120;-71
2021/10/19 02:39:14;;;;;;;5.88;2.00;;;;;;;;;;5032483;28;20609;-71
2021/10/19 02:41:59;;;;;;;4.43;1.83;;;;;;;;;;5032237;28;20040;-70
2021/10/19 02:44:43;;;;;;;4.25;2.00;;;;;;;;;;5032327;28;20099;-71
2021/10/19 02:47:28;;;;;;;3.72;1.70;;;;;;;;;;5032092;28;20100;-71
2021/10/19 02:50:13;;;;;;;4.30;1.67;;;;;;;;;;5032314;28;20415;-71
2021/10/19 02:52:58;;;;;;;4.57;1.70;;;;;;;;;;5032873;28;20404;-71
2021/10/19 02:55:43;;;;;;;3.65;1.80;;;;;;;;;;5032102;28;20044;-71
2021/10/19 02:58:27;;;;;;;5.25;2.10;;;;;;;;;;5032041;28;20036;-71
2021/10/19 03:01:12;;;;;;;3.95;1.85;;;;;;;;;;5032007;28;20080;-71
2021/10/19 03:03:57;;;;;;;5.20;1.90;;;;;;;;;;5031818;28;20048;-71
2021/10/19 03:06:42;;;;;;;3.50;1.77;;;;;;;;;;5031962;28;20408;-71
2021/10/19 03:09:26;;;;;;;5.10;1.50;;;;;;;;;;5031946;28;20039;-71
2021/10/19 03:12:11;;;;;;;6.03;2.20;;;;;;;;;;5031899;28;20040;-71
2021/10/19 03:14:55;;;;;;;6.78;2.00;;;;;;;;;;5031853;28;20512;-71
2021/10/19 03:17:40;;;;;;;4.40;1.90;;;;;;;;;;5031740;28;20129;-71
2021/10/19 03:20:25;;;;;;;7.70;2.50;;;;;;;;;;5031790;28;20087;-71
2021/10/19 03:23:10;;;;;;;7.35;2.13;;;;;;;;;;5031569;28;20102;-71
2021/10/19 03:25:55;;;;;;;3.03;1.70;;;;;;;;;;5031666;28;20040;-70
2021/10/19 03:28:40;;;;;;;4.38;2.05;;;;;;;;;;5031686;28;20484;-71
2021/10/19 03:31:24;;;;;;;5.75;2.22;;;;;;;;;;5031483;28;20514;-71
2021/10/19 03:34:09;;;;;;;3.92;1.95;;;;;;;;;;5031706;28;20048;-71
2021/10/19 03:36:53;;;;;;;4.75;2.00;;;;;;;;;;5031538;28;20095;-71
2021/10/19 03:39:38;;;;;;;4.47;1.95;;;;;;;;;;5031588;28;20124;-71
2021/10/19 03:42:22;;;;;;;5.55;2.15;;;;;;;;;;5031443;28;20540;-71
2021/10/19 03:45:07;;;;;;;4.40;2.10;;;;;;;;;;5016507;28;20075;-71
2021/10/19 03:47:52;;;;;;;4.28;2.00;;;;;;;;;;5031442;28;20091;-71
2021/10/19 03:50:36;;;;;;;5.70;2.20;;;;;;;;;;5031539;28;20052;-71
2021/10/19 03:53:21;;;;;;;7.55;2.17;;;;;;;;;;5031501;28;20131;-71
2021/10/19 03:56:05;;;;;;;5.47;2.10;;;;;;;;;;5031375;28;20045;-71
2021/10/19 03:58:50;;;;;;;4.30;1.90;;;;;;;;;;5031397;28;20068;-71
2021/10/19 04:01:35;;;;;;;5.80;1.95;;;;;;;;;;5031327;28;20044;-70
2021/10/19 04:04:20;;;;;;;5.18;2.10;;;;;;;;;;5031420;28;20057;-70
2021/10/19 04:07:04;;;;;;;6.55;2.03;;;;;;;;;;5031382;28;20165;-70
2021/10/19 04:09:49;;;;;;;6.30;2.10;;;;;;;;;;5031262;28;20044;-69
2021/10/19 04:12:33;;;;;;;4.47;1.95;;;;;;;;;;5031558;28;20524;-69
2021/10/19 04:15:18;;;;;;;4.35;1.83;;;;;;;;;;5031271;28;20048;-69
2021/10/19 04:18:02;;;;;;;4.47;2.08;;;;;;;;;;5031204;28;20561;-69
2021/10/19 04:20:47;;;;;;;4.22;1.92;;;;;;;;;;5031323;28;20079;-69
2021/10/19 04:23:32;;;;;;;3.72;1.90;;;;;;;;;;5031156;28;20049;-69
2021/10/19 04:26:16;;;;;;;4.10;2.03;;;;;;;;;;5031177;28;20032;-69
2021/10/19 04:29:01;;;;;;;5.88;2.28;;;;;;;;;;5031208;28;20080;-69
2021/10/19 04:31:45;;;;;;;3.22;1.88;;;;;;;;;;5031176;28;20040;-69
2021/10/19 04:34:30;;;;;;;5.55;2.00;;;;;;;;;;5031114;28;20045;-69
2021/10/19 04:37:14;;;;;;;4.63;1.75;;;;;;;;;;5033940;28;20049;-70
2021/10/19 04:39:59;;;;;;;5.22;2.10;;;;;;;;;;5034751;28;20047;-69
2021/10/19 04:42:44;;;;;;;5.43;1.80;;;;;;;;;;5034567;28;20048;-69
2021/10/19 04:45:29;;;;;;;6.03;1.75;;;;;;;;;;5035657;28;20423;-70
2021/10/19 04:48:14;;;;;;;5.80;1.70;;;;;;;;;;5034389;28;20099;-69
2021/10/19 04:50:59;;;;;;;5.13;1.90;;;;;;;;;;5033858;28;20044;-70
2021/10/19 04:53:44;;;;;;;3.38;1.65;;;;;;;;;;5033705;28;20111;-70
2021/10/19 04:56:28;;;;;;;3.90;1.88;;;;;;;;;;5018714;28;20392;-70
2021/10/19 04:59:13;;;;;;;4.47;1.95;;;;;;;;;;5018585;28;20103;-70
2021/10/19 05:01:57;;;;;;;3.97;1.90;;;;;;;;;;5018313;28;20049;-70
2021/10/19 05:04:42;;;;;;;3.30;2.15;;;;;;;;;;5033514;28;20551;-70
2021/10/19 05:07:26;;;;;;;3.45;1.77;;;;;;;;;;5018499;28;20484;-70
2021/10/19 05:10:11;;;;;;;3.80;1.83;;;;;;;;;;5033308;28;20040;-70
2021/10/19 05:12:55;;;;;;;4.63;1.80;;;;;;;;;;5033474;28;20080;-70
2021/10/19 05:15:40;;;;;;;3.55;1.90;;;;;;;;;;5018349;28;20083;-70
2021/10/19 05:18:25;;;;;;;3.67;1.67;;;;;;;;;;5033207;28;20107;-70
2021/10/19 05:21:09;;;;;;;4.28;1.92;;;;;;;;;;5033429;28;20099;-70
2021/10/19 05:23:54;;;;;;;5.82;2.20;;;;;;;;;;5033040;28;20056;-70
2021/10/19 05:26:38;;;;;;;4.13;1.80;;;;;;;;;;5032927;28;20180;-71
2021/10/19 05:29:23;;;;;;;5.93;2.00;;;;;;;;;;5032798;28;20508;-71
2021/10/19 05:32:08;;;;;;;6.40;2.08;;;;;;;;;;5033014;28;20097;-71
2021/10/19 05:34:52;;;;;;;6.15;2.03;;;;;;;;;;5032434;28;20103;-71
2021/10/19 05:37:37;;;;;;;5.20;2.08;;;;;;;;;;5032838;28;20111;-71
2021/10/19 05:40:22;;;;;;;4.45;1.95;;;;;;;;;;5032699;28;20108;-70
2021/10/19 05:43:06;;;;;;;6.18;1.92;;;;;;;;;;5032737;28;20103;-71
2021/10/19 05:45:51;;;;;;;3.70;1.55;;;;;;;;;;5032470;28;20040;-70
2021/10/19 05:48:35;;;;;;;3.90;1.80;;;;;;;;;;5031523;28;20040;-70
2021/10/19 05:51:20;;;;;;;4.35;1.80;;;;;;;;;;5033147;28;20044;-70
2021/10/19 05:54:04;;;;;;;4.65;1.80;;;;;;;;;;5032391;28;20373;-70
2021/10/19 05:56:49;;;;;;;5.57;2.75;;;;;;;;;;5003657;28;20052;-70
2021/10/19 05:59:34;;;;;;;4.00;1.92;;;;;;;;;;5032123;28;20048;-70
2021/10/19 06:02:18;;;;;;;5.97;1.95;;;;;;;;;;5032115;28;20527;-70
2021/10/19 06:05:03;;;;;;;3.08;2.00;;;;;;;;;;5032301;28;20095;-70
2021/10/19 06:07:48;;;;;;;2.95;1.52;;;;;;;;;;5032239;28;20122;-70
2021/10/19 06:10:32;;;;;;;4.00;1.77;;;;;;;;;;5032045;28;20044;-70
2021/10/19 06:13:17;;;;;;;3.20;1.90;;;;;;;;;;5016666;28;20056;-70
2021/10/19 06:16:01;;;;;;;5.47;2.00;;;;;;;;;;5032163;28;20052;-70
2021/10/19 06:18:46;;;;;;;3.85;1.75;;;;;;;;;;5031962;28;20404;-70
2021/10/19 06:21:31;;;;;;;3.78;1.70;;;;;;;;;;5017011;28;20061;-69
2021/10/19 06:24:17;;;;;;;5.15;2.50;;;;;;;;;;5016821;28;20091;-70
2021/10/19 06:27:02;;;;;;;3.42;1.88;;;;;;;;;;5031914;28;20079;-70
2021/10/19 06:29:46;;;;;;;5.00;1.98;;;;;;;;;;5031365;28;20118;-71
2021/10/19 06:32:31;;;;;;;3.63;1.65;;;;;;;;;;5031855;28;20036;-70
2021/10/19 06:35:15;;;;;;;2.97;1.77;;;;;;;;;;5016686;28;20568;-70
2021/10/19 06:37:59;;;;;;;3.00;1.75;;;;;;;;;;5031678;28;20052;-71
2021/10/19 06:40:44;;;;;;;2.55;1.70;;;;;;;;;;5031556;28;20125;-71
2021/10/19 06:43:29;;;;;;;3.60;1.98;;;;;;;;;;5016692;28;20069;-70
2021/10/19 06:46:14;;;;;;;4.40;2.15;;;;;;;;;;5016463;28;20125;-71
2021/10/19 06:48:58;;;;;;;3.42;1.83;;;;;;;;;;5031592;28;20076;-71
2021/10/19 06:51:43;;;;;;;4.68;1.98;;;;;;;;;;5031470;28;20120;-71
2021/10/19 06:54:27;;;;;;;4.25;1.88;;;;;;;;;;5031345;28;20040;-71
2021/10/19 06:57:12;;;;;;;4.75;1.70;;;;;;;;;;5031410;28;20390;-71
2021/10/19 07:00:00;;;;;;;2.25;1.60;;;;;;;;;;5031067;28;20041;-71
2021/10/19 07:02:45;;;;;;;4.13;1.80;;;;;;;;;;5031557;28;20052;-71
2021/10/19 07:05:30;;;;;;;4.20;1.60;;;;;;;;;;5031219;28;20048;-71
2021/10/19 07:08:14;;;;;;;4.03;1.70;;;;;;;;;;5031199;28;20079;-71
2021/10/19 07:10:59;;;;;;;3.72;1.63;;;;;;;;;;5016151;28;20117;-70
2021/10/19 07:13:43;;;;;;;3.83;1.58;;;;;;;;;;5031001;28;20168;-71
2021/10/19 07:16:28;;;;;;;4.38;1.90;;;;;;;;;;5031160;28;20044;-71
2021/10/19 07:19:12;;;;;;;2.72;1.70;;;;;;;;;;5030959;28;20048;-71
2021/10/19 07:21:57;;;;;;;2.70;1.60;;;;;;;;;;5031077;28;20083;-70
2021/10/19 07:24:42;;;;;;;2.92;1.65;;;;;;;;;;5016077;28;20052;-71
2021/10/19 07:27:26;;;;;;;5.78;1.60;;;;;;;;;;5030933;28;20087;-70
2021/10/19 07:30:12;;;;;;;2.22;1.40;;;;;;;;;;5031029;28;20040;-71
2021/10/19 07:32:57;;;;;;;2.60;1.50;;;;;;;;;;5030809;28;20133;-71
2021/10/19 07:35:41;;;;;;;3.75;1.52;;;;;;;;;;5030888;28;20160;-71
2021/10/19 07:38:26;;;;;;;4.07;1.60;;;;;;;;;;5030877;28;20040;-71
2021/10/19 07:41:11;;;;;;;3.88;1.52;;;;;;;;;;5030773;28;20119;-70
2021/10/19 07:43:55;;;;;;;2.75;1.38;;;;;;;;;;5030504;28;20103;-70
2021/10/19 07:46:40;;;;;;;2.35;1.48;;;;;;;;;;5030774;28;20048;-70
2021/10/19 07:49:25;;;;;;;2.47;1.40;;;;;;;;;;5030671;28;20518;-70
2021/10/19 07:52:10;;;;;;;2.92;1.63;;;;;;;;;;5016351;28;20041;-70
2021/10/19 07:54:54;;;;;;;2.78;1.58;;;;;;;;;;5030659;28;20515;-70
2021/10/19 07:57:45;;;;;;;3.08;1.60;;;;;;;;;;5030933;28;20503;-70
2021/10/19 08:00:30;;;;;;;2.58;1.50;;;;;;;;;;5030717;28;20064;-70
2021/10/19 08:03:15;;;;;;;2.78;1.50;;;;;;;;;;5015552;28;20174;-70
2021/10/19 08:06:00;;;;;;;4.45;1.70;;;;;;;;;;5030612;28;20068;-70
2021/10/19 08:08:45;;;;;;;3.38;1.58;;;;;;;;;;5030683;28;20056;-70
2021/10/19 08:11:30;;;;;;;3.67;1.73;;;;;;;;;;5032191;28;20040;-70
2021/10/19 08:14:15;;;;;;;2.58;1.55;;;;;;;;;;5034515;28;20184;-70
2021/10/19 08:16:59;;;;;;;2.80;1.83;;;;;;;;;;5034386;28;20129;-70
2021/10/19 08:19:44;;;;;;;2.03;1.40;;;;;;;;;;5034262;28;20045;-70
2021/10/19 08:22:29;;;;;;;2.47;1.60;;;;;;;;;;5034326;28;20538;-70
2021/10/19 08:25:14;;;;;;;3.53;1.25;;;;;;;;;;5034179;28;20052;-69
2021/10/19 08:27:59;;;;;;;2.90;1.63;;;;;;;;;;5019451;28;20099;-69
2021/10/19 08:30:44;;;;;;;2.60;1.63;;;;;;;;;;5034357;28;20043;-70
2021/10/19 08:33:28;;;;;;;3.58;1.70;;;;;;;;;;5034243;28;20555;-70
2021/10/19 08:36:13;;;;;;;2.80;1.40;;;;;;;;;;5034126;28;20404;-70
2021/10/19 08:38:57;;;;;;;4.55;1.48;;;;;;;;;;5033908;28;20102;-70
2021/10/19 08:41:42;;;;;;;2.85;1.50;;;;;;;;;;5034004;28;20040;-70
2021/10/19 08:44:28;;;;;;;2.50;1.50;;;;;;;;;;5018776;28;20072;-71
2021/10/19 08:47:13;;;;;;;4.03;1.48;;;;;;;;;;5004916;28;20040;-70
2021/10/19 08:49:57;;;;;;;3.15;1.40;;;;;;;;;;5018811;28;20040;-71
2021/10/19 08:52:42;;;;;;;2.45;1.20;;;;;;;;;;5034222;28;20072;-71
2021/10/19 08:55:26;;;;;;;4.40;1.40;;;;;;;;;;5033555;28;20566;-70
2021/10/19 08:58:12;;;;;;;1.95;1.20;;;;;;;;;;5033683;28;20087;-70
2021/10/19 09:01:03;;;;;;;2.75;1.40;;;;;;;;;;5033438;28;20088;-70
2021/10/19 09:03:48;;;;;;;2.00;1.20;;;;;;;;;;5018546;28;20175;-71
2021/10/19 09:06:34;;;;;;;1.77;1.30;;;;;;;;;;5033533;28;20179;-71
2021/10/19 09:09:27;;;;;;;1.98;1.10;;;;;;;;;;5033409;28;20040;-71
2021/10/19 09:12:12;;;;;;;1.58;1.10;;;;;;;;;;5033316;28;20036;-71
2021/10/19 09:15:03;;;;;;;1.80;0.93;;;;;;;;;;5033390;28;20091;-71
2021/10/19 09:17:48;;;;;;;2.72;1.27;;;;;;;;;;5033375;28;20079;-70
2021/10/19 09:20:36;;;;;;;1.58;1.00;;;;;;;;;;5033366;28;20128;-71
2021/10/19 09:23:22;;;;;;;1.52;1.00;;;;;;;;;;5032856;28;20068;-71
2021/10/19 09:26:07;;;;;;;1.40;0.93;;;;;;;;;;5033075;28;20148;-71
2021/10/19 09:28:52;;;;;;;1.67;0.90;;;;;;;;;;5032960;28;20044;-70
2021/10/19 09:31:37;;;;;;;1.38;0.90;;;;;;;;;;5033021;28;20605;-71
2021/10/19 09:34:22;;;;;;;2.03;0.82;;;;;;;;;;5033606;28;20043;-71
2021/10/19 09:37:08;;;;;;;1.40;0.90;;;;;;;;;;5032879;28;20085;-70
2021/10/19 09:39:53;;;;;;;1.08;0.80;;;;;;;;;;5032821;28;20041;-70
2021/10/19 09:42:38;;;;;;;1.02;0.73;;;;;;;;;;5032668;28;20507;-70
2021/10/19 09:45:25;;;;;;;1.98;0.93;;;;;;;;;;5032567;28;20071;-70
2021/10/19 09:48:12;;;;;;;2.00;0.80;;;;;;;;;;5032674;28;20413;-70
2021/10/19 09:50:56;;;;;;;1.55;0.90;;;;;;;;;;5017790;28;20088;-70
2021/10/19 09:53:41;;;;;;;2.95;0.73;;;;;;;;;;5032690;28;20067;-70
2021/10/19 09:56:25;;;;;;;1.25;0.80;;;;;;;;;;5017724;28;20072;-70
2021/10/19 09:59:11;;;;;;;1.25;0.77;;;;;;;;;;5032610;28;20107;-70
2021/10/19 10:01:57;;;;;;;1.52;0.90;;;;;;;;;;5032360;28;20507;-70
2021/10/19 10:04:42;;;;;;;1.05;0.75;;;;;;;;;;5032302;28;20053;-70
2021/10/19 10:07:30;;;;;;;1.48;0.80;;;;;;;;;;5032389;28;20393;-70
2021/10/19 10:10:15;;;;;;;1.27;0.70;;;;;;;;;;5017715;28;20044;-70
2021/10/19 10:12:59;;;;;;;1.20;0.80;;;;;;;;;;5032262;28;20049;-70
2021/10/19 10:15:44;;;;;;;1.73;0.80;;;;;;;;;;5032137;28;20064;-70
2021/10/19 10:18:32;;;;;;;2.63;0.70;;;;;;;;;;5017235;28;20157;-70
2021/10/19 10:21:19;;;;;;;1.05;0.70;;;;;;;;;;5031933;28;20064;-70
2021/10/19 10:24:05;;;;;;;0.70;0.52;;;;;;;;;;5017124;28;20072;-70
2021/10/19 10:26:49;;;;;;;1.88;0.80;;;;;;;;;;5032096;28;20539;-70
2021/10/19 10:29:38;;;;;;;1.52;0.80;;;;;;;;;;5017091;28;20075;-70
2021/10/19 10:32:23;;;;;;;0.90;0.70;;;;;;;;;;5031964;28;20233;-70
2021/10/19 10:35:08;;;;;;;1.10;0.60;;;;;;;;;;5031011;28;20039;-69
2021/10/19 10:37:54;;;;;;;1.92;0.70;;;;;;;;;;5016697;28;20043;-70
2021/10/19 10:40:39;;;;;;;0.82;0.63;;;;;;;;;;5031798;28;20044;-70
2021/10/19 10:43:25;;;;;;;0.80;0.60;;;;;;;;;;5031568;28;20057;-69
2021/10/19 10:46:20;;;;;;;1.13;0.60;;;;;;;;;;5031681;28;20094;-70
2021/10/19 10:49:11;;;;;;;1.10;0.70;;;;;;;;;;5031462;28;20091;-70
2021/10/19 10:51:55;;;;;;;1.10;0.60;;;;;;;;;;5016518;28;20148;-70
2021/10/19 10:54:50;;;;;;;1.50;0.70;;;;;;;;;;5031354;28;20040;-70
2021/10/19 10:57:41;;;;;;;0.77;0.70;;;;;;;;;;5031392;28;20450;-70
2021/10/19 11:00:26;;;;;;;1.27;0.70;;;;;;;;;;5015904;28;20041;-71
2021/10/19 11:03:15;;;;;;;1.33;0.70;;;;;;;;;;5016091;28;20191;-70
2021/10/19 11:06:00;;;;;;;0.82;0.50;;;;;;;;;;5031327;28;20132;-70
2021/10/19 11:08:45;;;;;;;1.13;0.70;;;;;;;;;;5016031;28;20569;-70
2021/10/19 11:11:38;;;;;;;1.15;0.60;;;;;;;;;;5030470;28;20044;-70
2021/10/19 11:14:24;;;;;;;0.77;0.60;;;;;;;;;;5030174;28;20044;-70
2021/10/19 11:17:09;;;;;;;0.70;0.60;;;;;;;;;;5030051;28;20040;-70
2021/10/19 11:19:56;;;;;;;1.30;0.68;;;;;;;;;;5015482;28;20039;-70
2021/10/19 11:22:41;;;;;;;0.85;0.60;;;;;;;;;;5015645;28;20052;-70
2021/10/19 11:25:26;;;;;;;0.80;0.68;;;;;;;;;;5015699;28;20088;-70
2021/10/19 11:28:10;;;;;;;1.48;0.80;;;;;;;;;;5031055;28;20047;-70
2021/10/19 11:30:55;;;;;;;2.10;0.70;;;;;;;;;;5014582;28;20107;-70
2021/10/19 11:33:43;;;;;;;1.75;0.90;;;;;;;;;;4999760;28;20274;-70
2021/10/19 11:36:28;;;;;;;1.48;0.70;;;;;;;;;;5013830;28;20405;-70
2021/10/19 11:39:13;;;;;;;1.10;0.80;;;;;;;;;;5030551;28;20473;-70
2021/10/19 11:42:00;;;;;;;1.60;0.80;;;;;;;;;;5014939;28;20067;-70
2021/10/19 11:44:45;;;;;;;1.30;0.80;;;;;;;;;;5016402;28;20079;-70
2021/10/19 11:47:29;;;;;;;1.77;0.70;;;;;;;;;;5019904;28;20645;-71
2021/10/19 11:50:14;;;;;;;1.08;0.68;;;;;;;;;;5005906;28;20076;-70
2021/10/19 11:53:01;;;;;;;0.70;0.60;;;;;;;;;;5005528;28;20048;-70
2021/10/19 11:55:45;;;;;;;1.15;0.70;;;;;;;;;;5019971;28;20045;-70
2021/10/19 11:58:30;;;;;;;1.83;0.80;;;;;;;;;;5019750;28;20598;-70
2021/10/19 12:01:14;;;;;;;1.05;0.70;;;;;;;;;;5019743;28;20060;-70
2021/10/19 12:04:00;;;;;;;1.23;0.70;;;;;;;;;;5019659;28;20084;-71
2021/10/19 12:06:48;;;;;;;2.33;0.70;;;;;;;;;;5034495;28;20512;-71
2021/10/19 12:09:32;;;;;;;1.45;0.70;;;;;;;;;;5017891;28;20044;-70
2021/10/19 12:12:16;;;;;;;0.73;0.65;;;;;;;;;;5032740;28;20044;-71
2021/10/19 12:15:01;;;;;;;2.72;0.70;;;;;;;;;;5034452;28;20504;-71
2021/10/19 12:18:12;;;;;;;1.30;0.70;;;;;;;;;;5034429;28;20036;-70
2021/10/19 12:20:56;;;;;;;2.42;0.80;;;;;;;;;;5034320;28;20041;-70
2021/10/19 12:23:54;;;;;;;1.33;0.60;;;;;;;;;;5018893;28;20052;-70
2021/10/19 12:26:39;;;;;;;1.67;0.70;;;;;;;;;;5019050;28;20045;-70
2021/10/19 12:29:23;;;;;;;2.63;0.80;;;;;;;;;;5019289;28;20040;-71
2021/10/19 12:32:08;;;;;;;1.20;0.70;;;;;;;;;;5034078;28;20055;-70
2021/10/19 12:34:53;;;;;;;3.28;0.82;;;;;;;;;;5018023;28;20051;-70
2021/10/19 12:37:38;;;;;;;1.58;0.90;;;;;;;;;;5018753;28;20102;-70
2021/10/19 12:40:23;;;;;;;1.48;0.90;;;;;;;;;;5018908;28;20504;-71
2021/10/19 12:43:08;;;;;;;1.35;0.90;;;;;;;;;;5018946;28;20123;-70
2021/10/19 12:45:52;;;;;;;1.45;1.00;;;;;;;;;;5033861;28;20036;-70
2021/10/19 12:48:38;;;;;;;1.23;0.80;;;;;;;;;;5018963;28;20048;-71
2021/10/19 12:51:23;;;;;;;2.22;0.90;;;;;;;;;;5019314;28;20115;-70
2021/10/19 12:54:07;;;;;;;3.00;0.80;;;;;;;;;;5018489;28;20048;-71
2021/10/19 12:56:52;;;;;;;1.52;0.88;;;;;;;;;;5032957;28;20044;-70
2021/10/19 12:59:37;;;;;;;1.38;0.70;;;;;;;;;;5018415;28;20183;-71
2021/10/19 13:02:25;;;;;;;4.00;0.82;;;;;;;;;;5018308;28;20120;-70
2021/10/19 13:05:10;;;;;;;1.50;0.95;;;;;;;;;;5018325;28;20048;-70
2021/10/19 13:07:55;;;;;;;2.13;0.80;;;;;;;;;;5033667;28;20083;-71
2021/10/19 13:10:39;;;;;;;2.13;0.93;;;;;;;;;;5033409;28;20095;-71
2021/10/19 13:13:24;;;;;;;1.27;0.80;;;;;;;;;;5033388;28;20543;-70
2021/10/19 13:16:08;;;;;;;2.25;0.90;;;;;;;;;;5033027;28;20048;-70
2021/10/19 13:18:54;;;;;;;2.10;0.80;;;;;;;;;;5033257;28;20055;-71
2021/10/19 13:21:41;;;;;;;1.70;0.90;;;;;;;;;;5033140;28;20040;-71
2021/10/19 13:24:26;;;;;;;2.13;0.82;;;;;;;;;;5032912;28;20481;-71
2021/10/19 13:27:11;;;;;;;1.83;0.80;;;;;;;;;;5033201;28;20044;-71
2021/10/19 13:29:55;;;;;;;3.65;0.73;;;;;;;;;;5033131;28;20396;-71
2021/10/19 13:32:40;;;;;;;3.40;1.00;;;;;;;;;;5017971;28;20107;-70
2021/10/19 13:35:25;;;;;;;2.80;0.98;;;;;;;;;;5033085;28;20033;-70
2021/10/19 13:38:09;;;;;;;1.67;0.90;;;;;;;;;;5032644;28;20067;-70
2021/10/19 13:40:55;;;;;;;1.88;0.77;;;;;;;;;;5017874;28;20056;-70
2021/10/19 13:43:40;;;;;;;1.88;0.80;;;;;;;;;;5032838;28;20169;-70
2021/10/19 13:46:24;;;;;;;2.83;0.93;;;;;;;;;;5032796;28;20045;-71
2021/10/19 13:49:09;;;;;;;2.47;0.80;;;;;;;;;;5017536;28;20468;-71
2021/10/19 13:51:54;;;;;;;2.08;0.90;;;;;;;;;;5033217;28;20095;-71
2021/10/19 13:54:39;;;;;;;1.88;0.80;;;;;;;;;;5032491;28;20512;-71
2021/10/19 13:57:23;;;;;;;1.95;0.90;;;;;;;;;;5032508;28;20040;-70
2021/10/19 14:00:09;;;;;;;2.30;0.90;;;;;;;;;;5032326;28;20546;-71
2021/10/19 14:02:54;;;;;;;1.27;0.73;;;;;;;;;;5031176;28;20052;-71
2021/10/19 14:05:40;;;;;;;2.83;1.00;;;;;;;;;;5030811;28;20111;-71
2021/10/19 14:08:25;;;;;;;1.90;1.00;;;;;;;;;;5029216;28;20381;-71
2021/10/19 14:11:10;;;;;;;1.92;1.00;;;;;;;;;;5031127;28;20542;-71
2021/10/19 14:13:55;;;;;;;2.10;1.00;;;;;;;;;;5016064;28;20045;-71
2021/10/19 14:16:40;;;;;;;4.82;1.02;;;;;;;;;;5032054;28;20044;-71
2021/10/19 14:19:24;;;;;;;2.58;0.98;;;;;;;;;;5032122;28;20056;-71
2021/10/19 14:22:09;;;;;;;4.22;1.20;;;;;;;;;;5032072;28;20171;-71
2021/10/19 14:24:54;;;;;;;3.33;0.82;;;;;;;;;;5031841;28;20532;-71
2021/10/19 14:27:38;;;;;;;3.40;1.15;;;;;;;;;;5031937;28;20040;-71
2021/10/19 14:30:23;;;;;;;3.10;1.00;;;;;;;;;;5031950;28;20057;-71
2021/10/19 14:33:07;;;;;;;3.10;1.27;;;;;;;;;;5031825;28;20063;-71
2021/10/19 14:35:52;;;;;;;2.70;1.17;;;;;;;;;;5031823;28;20440;-71
2021/10/19 14:38:37;;;;;;;3.15;0.98;;;;;;;;;;5031778;28;20071;-71
2021/10/19 14:41:22;;;;;;;3.15;0.82;;;;;;;;;;5031668;28;20049;-71
2021/10/19 14:44:06;;;;;;;3.67;1.25;;;;;;;;;;5031650;28;20052;-71
2021/10/19 14:46:51;;;;;;;2.97;0.85;;;;;;;;;;5031679;28;20049;-71
2021/10/19 14:49:35;;;;;;;2.72;1.08;;;;;;;;;;5031534;28;20508;-71
2021/10/19 14:52:20;;;;;;;2.00;1.05;;;;;;;;;;5031533;28;20103;-71
2021/10/19 14:55:05;;;;;;;2.53;1.00;;;;;;;;;;5016184;28;20083;-71
2021/10/19 14:57:50;;;;;;;2.45;1.05;;;;;;;;;;5031275;28;20119;-71
2021/10/19 15:00:34;;;;;;;3.28;1.05;;;;;;;;;;5016267;28;20389;-71
2021/10/19 15:03:19;;;;;;;3.95;1.10;;;;;;;;;;5031186;28;20519;-71
2021/10/19 15:06:03;;;;;;;2.20;1.10;;;;;;;;;;5015958;28;20036;-71
2021/10/19 15:08:48;;;;;;;4.15;1.00;;;;;;;;;;5031319;28;20048;-71
2021/10/19 15:11:33;;;;;;;2.55;1.13;;;;;;;;;;5031194;28;20052;-71
2021/10/19 15:14:17;;;;;;;3.15;1.00;;;;;;;;;;5031172;28;20044;-71
2021/10/19 15:17:02;;;;;;;1.85;0.98;;;;;;;;;;5031125;28;20091;-71
2021/10/19 15:19:46;;;;;;;2.10;1.08;;;;;;;;;;5030730;28;20045;-71
2021/10/19 15:22:31;;;;;;;3.40;1.20;;;;;;;;;;5030848;28;20088;-71
2021/10/19 15:25:15;;;;;;;2.25;1.25;;;;;;;;;;5030960;28;20091;-71
2021/10/19 15:28:00;;;;;;;4.10;1.27;;;;;;;;;;5030867;28;20131;-71
2021/10/19 15:30:44;;;;;;;1.70;1.10;;;;;;;;;;5031094;28;20040;-71
2021/10/19 15:33:31;;;;;;;3.30;1.30;;;;;;;;;;5016159;28;20036;-71
2021/10/19 15:36:16;;;;;;;1.95;1.23;;;;;;;;;;5030855;28;20044;-71
2021/10/19 15:39:01;;;;;;;2.85;0.85;;;;;;;;;;5016009;28;20083;-71
2021/10/19 15:41:45;;;;;;;2.20;1.00;;;;;;;;;;5030611;28;20095;-71
2021/10/19 15:44:30;;;;;;;1.85;1.00;;;;;;;;;;5030687;28;20056;-71
2021/10/19 15:47:15;;;;;;;2.72;1.08;;;;;;;;;;5030730;28;20048;-71
2021/10/19 15:49:59;;;;;;;2.13;1.30;;;;;;;;;;5030414;28;20051;-71
2021/10/19 15:52:44;;;;;;;3.28;1.20;;;;;;;;;;5030443;28;20428;-70
2021/10/19 15:55:28;;;;;;;6.63;1.40;;;;;;;;;;5028440;28;20052;-70
2021/10/19 15:58:14;;;;;;;4.18;1.45;;;;;;;;;;5029699;28;20080;-70
2021/10/19 16:00:58;;;;;;;3.17;1.13;;;;;;;;;;5029004;28;20076;-70
2021/10/19 16:03:43;;;;;;;5.40;1.33;;;;;;;;;;5030366;28;20048;-70
2021/10/19 16:06:28;;;;;;;3.75;1.15;;;;;;;;;;5031746;28;20040;-70
2021/10/19 16:09:12;;;;;;;3.42;1.15;;;;;;;;;;5031051;28;20142;-68
2021/10/19 16:12:00;;;;;;;6.75;1.30;;;;;;;;;;5028680;28;20036;-70
2021/10/19 16:14:45;;;;;;;4.65;1.40;;;;;;;;;;5030104;28;20040;-69
2021/10/19 16:17:30;;;;;;;2.35;1.10;;;;;;;;;;5015713;28;20522;-69
2021/10/19 16:20:15;;;;;;;6.00;1.40;;;;;;;;;;5015531;28;20036;-70
2021/10/19 16:22:59;;;;;;;4.75;1.48;;;;;;;;;;5030193;28;20125;-70
2021/10/19 16:25:44;;;;;;;4.38;1.30;;;;;;;;;;5030416;28;20262;-69
2021/10/19 16:28:28;;;;;;;4.97;1.20;;;;;;;;;;5030588;28;20430;-69
2021/10/19 16:31:14;;;;;;;4.18;1.40;;;;;;;;;;5030367;28;20109;-70